Time;durP1;ratioP1;P1;durP2;ratioP2;P2;SDS_P1;SDS_P2;PMS_P1;PMS_P2;Temp;Humidity;BMP_temperature;BMP_pressure;BME280_temperature;BME280_humidity;BME280_pressure;Samples;Min_cycle;Max_cycle;Signal;HPM_P1;HPM_P2
2022/12/05 00:01:33;;;;;;;64.25;30.38;;;;;;;;;;5035008;28;20029;-76
2022/12/05 00:04:00;;;;;;;60.92;29.85;;;;;;;;;;5041470;28;20402;-75
2022/12/05 00:06:27;;;;;;;67.22;30.88;;;;;;;;;;5045750;28;20029;-75
2022/12/05 00:08:53;;;;;;;63.67;30.60;;;;;;;;;;5052378;28;20052;-74
2022/12/05 00:11:20;;;;;;;68.18;31.52;;;;;;;;;;5055644;28;20029;-73
2022/12/05 00:13:46;;;;;;;62.70;30.70;;;;;;;;;;5050066;28;20021;-74
2022/12/05 00:16:14;;;;;;;67.10;32.53;;;;;;;;;;5033563;28;20163;-77
2022/12/05 00:18:40;;;;;;;70.95;31.55;;;;;;;;;;5032661;28;20112;-76
2022/12/05 00:21:07;;;;;;;66.72;32.03;;;;;;;;;;5033247;28;20109;-77
2022/12/05 00:23:33;;;;;;;68.40;32.83;;;;;;;;;;5033529;28;20116;-74
2022/12/05 00:26:03;;;;;;;69.78;32.53;;;;;;;;;;5032903;28;20463;-75
2022/12/05 00:28:30;;;;;;;67.53;32.72;;;;;;;;;;5033527;28;20064;-76
2022/12/05 00:30:56;;;;;;;68.30;32.30;;;;;;;;;;5033454;28;20083;-76
2022/12/05 00:33:22;;;;;;;66.50;32.47;;;;;;;;;;5034531;28;20026;-76
2022/12/05 00:35:48;;;;;;;66.40;32.45;;;;;;;;;;5032461;28;20033;-77
2022/12/05 00:38:14;;;;;;;72.13;33.40;;;;;;;;;;5033648;28;20025;-77
2022/12/05 00:40:40;;;;;;;68.55;32.15;;;;;;;;;;5034211;28;20033;-76
2022/12/05 00:43:05;;;;;;;67.97;31.75;;;;;;;;;;5034366;28;20057;-75
2022/12/05 00:45:32;;;;;;;62.70;30.65;;;;;;;;;;5032951;28;20029;-77
2022/12/05 00:47:58;;;;;;;64.80;31.15;;;;;;;;;;5033767;28;20037;-76
2022/12/05 00:50:24;;;;;;;59.05;29.70;;;;;;;;;;5037110;28;20021;-75
2022/12/05 00:52:51;;;;;;;65.40;32.53;;;;;;;;;;5033479;28;20026;-77
2022/12/05 00:55:17;;;;;;;59.33;30.20;;;;;;;;;;5033176;28;20493;-73
2022/12/05 00:57:43;;;;;;;62.72;30.83;;;;;;;;;;5036923;28;20504;-77
2022/12/05 01:00:09;;;;;;;65.30;30.88;;;;;;;;;;5038959;28;20084;-77
2022/12/05 01:02:35;;;;;;;59.08;29.60;;;;;;;;;;5035000;28;20108;-76
2022/12/05 01:05:01;;;;;;;60.58;30.48;;;;;;;;;;5035281;28;20072;-77
2022/12/05 01:07:27;;;;;;;61.67;31.15;;;;;;;;;;5033416;28;20087;-77
2022/12/05 01:09:53;;;;;;;60.10;28.98;;;;;;;;;;5032932;28;20481;-75
2022/12/05 01:12:19;;;;;;;58.33;29.10;;;;;;;;;;5032482;28;20045;-77
2022/12/05 01:14:44;;;;;;;53.00;28.38;;;;;;;;;;5032605;28;20029;-77
2022/12/05 01:17:10;;;;;;;59.70;28.42;;;;;;;;;;5032495;28;20422;-74
2022/12/05 01:19:36;;;;;;;56.28;27.80;;;;;;;;;;5033675;28;20068;-75
2022/12/05 01:22:02;;;;;;;54.80;27.55;;;;;;;;;;5035030;28;20033;-77
2022/12/05 01:24:29;;;;;;;53.30;27.23;;;;;;;;;;5033337;28;20033;-73
2022/12/05 01:26:56;;;;;;;53.05;27.95;;;;;;;;;;5032754;28;20099;-73
2022/12/05 01:29:23;;;;;;;59.45;26.80;;;;;;;;;;5044177;28;20030;-75
2022/12/05 01:31:49;;;;;;;52.50;26.15;;;;;;;;;;5047537;28;20029;-74
2022/12/05 01:34:16;;;;;;;49.80;26.33;;;;;;;;;;5039367;28;20027;-73
2022/12/05 01:36:42;;;;;;;52.83;27.63;;;;;;;;;;5037272;28;20030;-76
2022/12/05 01:39:09;;;;;;;49.22;25.63;;;;;;;;;;5038911;28;20026;-74
2022/12/05 01:41:36;;;;;;;55.03;26.52;;;;;;;;;;5037188;28;20136;-72
2022/12/05 01:44:02;;;;;;;52.33;27.13;;;;;;;;;;5038531;28;20030;-75
2022/12/05 01:46:32;;;;;;;44.42;24.35;;;;;;;;;;5038455;28;20494;-71
2022/12/05 01:49:04;;;;;;;51.55;25.95;;;;;;;;;;5039205;28;20041;-73
2022/12/05 01:51:32;;;;;;;49.47;27.20;;;;;;;;;;5038737;28;20417;-72
2022/12/05 01:53:58;;;;;;;50.67;25.90;;;;;;;;;;5038502;28;20037;-72
2022/12/05 01:56:24;;;;;;;46.40;26.00;;;;;;;;;;5037846;28;20033;-72
2022/12/05 01:58:51;;;;;;;48.47;26.23;;;;;;;;;;5038550;28;20156;-72
2022/12/05 02:01:17;;;;;;;49.65;26.33;;;;;;;;;;5038513;28;20036;-76
2022/12/05 02:03:44;;;;;;;54.33;25.85;;;;;;;;;;5038733;28;20025;-72
2022/12/05 02:06:11;;;;;;;49.92;26.25;;;;;;;;;;5038181;28;20033;-72
2022/12/05 02:08:38;;;;;;;48.63;26.55;;;;;;;;;;5038613;28;20096;-73
2022/12/05 02:11:05;;;;;;;49.17;25.70;;;;;;;;;;5037345;28;20022;-73
2022/12/05 02:13:31;;;;;;;50.00;26.77;;;;;;;;;;5037783;28;20401;-72
2022/12/05 02:16:02;;;;;;;50.40;26.95;;;;;;;;;;5039461;28;20025;-73
2022/12/05 02:18:31;;;;;;;57.70;26.55;;;;;;;;;;5041887;28;20072;-72
2022/12/05 02:21:00;;;;;;;55.58;28.05;;;;;;;;;;5040941;28;20033;-75
2022/12/05 02:23:26;;;;;;;57.85;28.52;;;;;;;;;;5045616;28;20033;-72
2022/12/05 02:25:55;;;;;;;55.35;27.63;;;;;;;;;;5044631;28;20029;-71
2022/12/05 02:28:21;;;;;;;59.50;29.42;;;;;;;;;;5045279;28;20033;-72
2022/12/05 02:30:53;;;;;;;57.88;28.95;;;;;;;;;;5046554;28;20017;-71
2022/12/05 02:33:22;;;;;;;57.25;29.17;;;;;;;;;;5040182;28;20034;-75
2022/12/05 02:35:59;;;;;;;61.15;29.58;;;;;;;;;;5036892;28;20029;-74
2022/12/05 02:38:25;;;;;;;59.17;29.38;;;;;;;;;;5043854;28;20494;-77
2022/12/05 02:40:51;;;;;;;61.05;31.02;;;;;;;;;;5054607;28;20026;-78
2022/12/05 02:43:19;;;;;;;67.72;31.17;;;;;;;;;;5057511;28;20068;-78
2022/12/05 02:45:47;;;;;;;61.70;29.85;;;;;;;;;;5052486;28;20017;-78
2022/12/05 02:48:15;;;;;;;63.53;31.42;;;;;;;;;;5043526;28;20029;-80
2022/12/05 02:50:42;;;;;;;63.35;29.30;;;;;;;;;;5044889;28;20017;-79
2022/12/05 02:53:10;;;;;;;66.90;32.10;;;;;;;;;;5049868;28;20052;-78
2022/12/05 02:55:37;;;;;;;66.53;31.23;;;;;;;;;;5051899;28;20029;-78
2022/12/05 02:58:06;;;;;;;61.38;29.02;;;;;;;;;;5046766;28;20037;-79
2022/12/05 03:00:32;;;;;;;61.92;30.45;;;;;;;;;;5042226;28;20212;-79
2022/12/05 03:02:59;;;;;;;62.25;31.10;;;;;;;;;;5042894;28;20064;-78
2022/12/05 03:05:25;;;;;;;62.22;28.98;;;;;;;;;;5040139;28;20366;-78
2022/12/05 03:07:53;;;;;;;58.42;28.40;;;;;;;;;;5040592;28;20044;-78
2022/12/05 03:10:21;;;;;;;58.55;28.77;;;;;;;;;;5035815;28;20032;-75
2022/12/05 03:12:51;;;;;;;58.95;30.17;;;;;;;;;;5034308;28;20059;-74
2022/12/05 03:15:21;;;;;;;62.13;30.00;;;;;;;;;;5034247;28;20490;-73
2022/12/05 03:17:49;;;;;;;61.05;29.63;;;;;;;;;;5034994;28;20026;-73
2022/12/05 03:20:22;;;;;;;60.88;29.20;;;;;;;;;;5034368;28;20367;-74
2022/12/05 03:22:58;;;;;;;59.72;30.00;;;;;;;;;;5034029;28;20079;-73
2022/12/05 03:25:28;;;;;;;59.13;28.30;;;;;;;;;;5033791;28;20030;-75
2022/12/05 03:28:01;;;;;;;60.67;29.48;;;;;;;;;;5034110;28;20289;-73
2022/12/05 03:30:27;;;;;;;59.85;28.70;;;;;;;;;;5036547;28;20017;-74
2022/12/05 03:33:04;;;;;;;62.88;29.13;;;;;;;;;;5037547;28;20025;-73
2022/12/05 03:35:41;;;;;;;60.00;29.92;;;;;;;;;;5035930;28;20061;-75
2022/12/05 03:38:22;;;;;;;58.55;29.40;;;;;;;;;;5038279;28;20111;-73
2022/12/05 03:40:51;;;;;;;68.50;30.83;;;;;;;;;;5037915;28;20033;-74
2022/12/05 03:43:34;;;;;;;64.97;30.23;;;;;;;;;;5034426;28;20564;-73
2022/12/05 03:46:09;;;;;;;65.93;29.17;;;;;;;;;;5033618;28;20127;-75
2022/12/05 03:48:38;;;;;;;63.97;29.38;;;;;;;;;;5034333;28;20057;-73
2022/12/05 03:51:06;;;;;;;63.58;29.77;;;;;;;;;;5034276;28;20100;-73
2022/12/05 03:53:35;;;;;;;57.30;28.98;;;;;;;;;;5034309;28;20029;-74
2022/12/05 03:56:04;;;;;;;59.95;29.75;;;;;;;;;;5036264;28;20068;-75
2022/12/05 03:58:40;;;;;;;65.15;30.55;;;;;;;;;;5037890;28;20033;-75
2022/12/05 04:01:06;;;;;;;64.90;28.83;;;;;;;;;;5049996;28;20040;-75
2022/12/05 04:03:38;;;;;;;58.83;29.08;;;;;;;;;;5052324;28;20040;-76
2022/12/05 04:06:07;;;;;;;61.58;30.58;;;;;;;;;;5050018;28;20151;-74
2022/12/05 04:08:40;;;;;;;64.22;29.92;;;;;;;;;;5035415;28;20083;-73
2022/12/05 04:11:09;;;;;;;63.90;31.13;;;;;;;;;;5033775;28;20053;-76
2022/12/05 04:13:41;;;;;;;62.22;30.98;;;;;;;;;;5033738;28;20036;-75
2022/12/05 04:18:59;;;;;;;62.30;31.10;;;;;;;;;;5033513;28;20036;-75
2022/12/05 04:21:38;;;;;;;71.38;32.92;;;;;;;;;;5031893;28;20056;-72
2022/12/05 04:26:55;;;;;;;72.63;33.45;;;;;;;;;;5032910;28;20506;-75
2022/12/05 04:29:26;;;;;;;74.38;34.78;;;;;;;;;;5033331;28;20029;-73
2022/12/05 04:31:55;;;;;;;77.35;36.10;;;;;;;;;;5033022;28;20024;-75
2022/12/05 04:34:21;;;;;;;74.72;35.00;;;;;;;;;;5033238;28;20433;-75
2022/12/05 04:36:54;;;;;;;79.65;35.20;;;;;;;;;;5034091;28;20084;-72
2022/12/05 04:39:24;;;;;;;77.15;34.63;;;;;;;;;;5040831;28;20025;-72
2022/12/05 04:41:54;;;;;;;83.00;35.83;;;;;;;;;;5049639;28;20021;-72
2022/12/05 04:44:23;;;;;;;81.72;35.47;;;;;;;;;;5052443;28;20028;-71
2022/12/05 04:46:50;;;;;;;81.55;36.22;;;;;;;;;;5047543;28;20017;-72
2022/12/05 04:49:21;;;;;;;81.20;35.88;;;;;;;;;;5046964;28;20112;-73
2022/12/05 04:51:49;;;;;;;82.75;36.20;;;;;;;;;;5034278;28;20022;-72
2022/12/05 04:54:24;;;;;;;90.63;36.88;;;;;;;;;;5032752;28;20026;-72
2022/12/05 04:56:52;;;;;;;79.13;35.40;;;;;;;;;;5032591;28;20076;-71
2022/12/05 04:59:18;;;;;;;84.82;36.65;;;;;;;;;;5033268;28;20033;-71
2022/12/05 05:01:53;;;;;;;83.40;35.50;;;;;;;;;;5032756;28;20078;-71
2022/12/05 05:04:21;;;;;;;83.35;36.75;;;;;;;;;;5032317;28;20083;-71
2022/12/05 05:06:47;;;;;;;86.40;37.10;;;;;;;;;;5032309;28;20152;-73
2022/12/05 05:09:13;;;;;;;81.63;36.00;;;;;;;;;;5032484;28;20081;-73
2022/12/05 05:11:39;;;;;;;86.72;36.67;;;;;;;;;;5032542;28;20022;-73
2022/12/05 05:14:05;;;;;;;89.35;37.10;;;;;;;;;;5032378;28;20060;-70
2022/12/05 05:16:33;;;;;;;87.57;37.20;;;;;;;;;;5058279;22;20112;-76
2022/12/05 05:18:59;;;;;;;84.85;37.83;;;;;;;;;;5037694;28;20022;-75
2022/12/05 05:21:27;;;;;;;92.68;39.50;;;;;;;;;;5036978;28;20029;-75
2022/12/05 05:23:53;;;;;;;99.20;39.53;;;;;;;;;;5036869;28;20022;-77
2022/12/05 05:26:19;;;;;;;90.40;38.78;;;;;;;;;;5036374;28;20026;-76
2022/12/05 05:28:45;;;;;;;89.07;38.70;;;;;;;;;;5038023;28;20022;-76
2022/12/05 05:31:12;;;;;;;85.75;35.83;;;;;;;;;;5035199;28;20371;-78
2022/12/05 05:33:38;;;;;;;75.22;32.65;;;;;;;;;;5034563;28;20418;-74
2022/12/05 05:36:04;;;;;;;75.55;33.67;;;;;;;;;;5038617;28;20494;-76
2022/12/05 05:38:30;;;;;;;82.80;34.03;;;;;;;;;;5044059;28;20025;-76
2022/12/05 05:40:56;;;;;;;74.07;34.75;;;;;;;;;;5042671;28;20152;-76
2022/12/05 05:43:22;;;;;;;80.03;34.70;;;;;;;;;;5044167;28;20048;-77
2022/12/05 05:45:48;;;;;;;89.28;34.20;;;;;;;;;;5037581;28;20597;-77
2022/12/05 05:48:14;;;;;;;93.50;35.55;;;;;;;;;;5041107;28;20031;-76
2022/12/05 05:50:40;;;;;;;91.20;36.85;;;;;;;;;;5040402;28;20474;-76
2022/12/05 05:53:06;;;;;;;94.80;38.97;;;;;;;;;;5035227;28;20546;-75
2022/12/05 05:55:32;;;;;;;80.80;35.38;;;;;;;;;;5033728;28;20548;-76
2022/12/05 05:57:58;;;;;;;88.60;37.35;;;;;;;;;;5034824;28;20030;-75
2022/12/05 06:00:24;;;;;;;90.65;38.45;;;;;;;;;;5040376;28;20040;-77
2022/12/05 06:02:50;;;;;;;96.30;39.35;;;;;;;;;;5041706;28;20033;-76
2022/12/05 06:05:16;;;;;;;92.15;38.72;;;;;;;;;;5050117;28;20029;-77
2022/12/05 06:07:42;;;;;;;99.35;39.30;;;;;;;;;;5048050;28;20017;-78
2022/12/05 06:10:08;;;;;;;100.22;41.50;;;;;;;;;;5034729;28;20026;-76
2022/12/05 06:12:34;;;;;;;102.82;39.42;;;;;;;;;;5033440;28;20052;-76
2022/12/05 06:15:00;;;;;;;111.63;40.83;;;;;;;;;;5032312;28;20040;-76
2022/12/05 06:17:26;;;;;;;99.40;39.45;;;;;;;;;;5036502;28;20060;-76
2022/12/05 06:19:51;;;;;;;103.32;39.70;;;;;;;;;;5039455;28;20026;-77
2022/12/05 06:22:18;;;;;;;100.45;38.42;;;;;;;;;;5039094;28;20021;-77
2022/12/05 06:24:44;;;;;;;104.47;38.63;;;;;;;;;;5038775;28;20037;-78
2022/12/05 06:27:10;;;;;;;102.97;40.50;;;;;;;;;;5038235;28;20032;-78
2022/12/05 06:29:36;;;;;;;105.13;40.72;;;;;;;;;;5040699;28;20026;-76
2022/12/05 06:32:02;;;;;;;107.97;40.05;;;;;;;;;;5038962;28;20398;-76
2022/12/05 06:34:28;;;;;;;97.63;38.58;;;;;;;;;;5041025;28;20335;-76
2022/12/05 06:36:54;;;;;;;103.88;39.28;;;;;;;;;;5040218;28;20029;-77
2022/12/05 06:39:20;;;;;;;105.53;40.15;;;;;;;;;;5041327;28;20086;-76
2022/12/05 06:41:46;;;;;;;109.07;40.70;;;;;;;;;;5038183;28;20029;-75
2022/12/05 06:44:12;;;;;;;104.15;38.95;;;;;;;;;;5038168;28;20037;-75
2022/12/05 06:46:38;;;;;;;110.22;41.88;;;;;;;;;;5040795;28;20022;-77
2022/12/05 06:49:04;;;;;;;109.53;40.08;;;;;;;;;;5051052;28;20505;-75
2022/12/05 06:51:30;;;;;;;121.05;43.03;;;;;;;;;;5053750;28;20830;-76
2022/12/05 06:53:56;;;;;;;111.35;42.53;;;;;;;;;;5049173;28;20049;-75
2022/12/05 06:56:22;;;;;;;111.15;41.75;;;;;;;;;;5042123;28;20021;-75
2022/12/05 06:58:49;;;;;;;121.78;42.00;;;;;;;;;;5041585;28;20072;-77
2022/12/05 07:04:01;;;;;;;112.55;41.95;;;;;;;;;;5039508;28;20068;-77
2022/12/05 07:06:27;;;;;;;117.60;42.05;;;;;;;;;;5049784;28;20029;-76
2022/12/05 07:08:53;;;;;;;118.78;41.20;;;;;;;;;;5052612;28;20239;-77
2022/12/05 07:11:19;;;;;;;110.38;41.55;;;;;;;;;;5055392;28;20029;-76
2022/12/05 07:13:45;;;;;;;123.75;46.22;;;;;;;;;;5054914;28;20028;-77
2022/12/05 07:16:11;;;;;;;120.35;42.40;;;;;;;;;;5052886;28;20039;-76
2022/12/05 07:18:37;;;;;;;114.65;40.58;;;;;;;;;;5056700;28;20094;-77
2022/12/05 07:21:04;;;;;;;113.07;41.63;;;;;;;;;;5055938;28;20037;-76
2022/12/05 07:23:30;;;;;;;112.97;41.70;;;;;;;;;;5057225;28;20045;-75
2022/12/05 07:25:58;;;;;;;122.18;43.85;;;;;;;;;;5054169;28;20041;-76
2022/12/05 07:28:24;;;;;;;119.88;43.05;;;;;;;;;;5053951;28;20045;-76
2022/12/05 07:30:59;;;;;;;122.32;42.40;;;;;;;;;;5048555;28;20036;-78
2022/12/05 07:33:25;;;;;;;126.35;42.83;;;;;;;;;;5040936;28;20045;-76
2022/12/05 07:35:51;;;;;;;112.60;42.63;;;;;;;;;;5036990;28;20020;-78
2022/12/05 07:38:17;;;;;;;121.78;42.13;;;;;;;;;;5035773;28;20108;-75
2022/12/05 07:40:43;;;;;;;122.20;43.60;;;;;;;;;;5035622;28;20060;-76
2022/12/05 07:43:08;;;;;;;127.47;43.28;;;;;;;;;;5035856;28;20348;-76
2022/12/05 07:45:34;;;;;;;120.93;41.10;;;;;;;;;;5034005;28;20146;-77
2022/12/05 07:48:01;;;;;;;125.72;42.50;;;;;;;;;;5036006;28;20026;-74
2022/12/05 07:50:27;;;;;;;126.45;43.78;;;;;;;;;;5036311;28;20029;-77
2022/12/05 07:52:52;;;;;;;127.97;44.42;;;;;;;;;;5035902;28;20148;-76
2022/12/05 07:55:18;;;;;;;126.38;43.10;;;;;;;;;;5034954;28;20029;-78
2022/12/05 07:57:44;;;;;;;120.70;41.95;;;;;;;;;;5033570;28;20029;-79
2022/12/05 08:00:11;;;;;;;119.90;41.80;;;;;;;;;;5033781;28;20136;-75
2022/12/05 08:02:37;;;;;;;119.10;42.17;;;;;;;;;;5034444;28;20085;-75
2022/12/05 08:05:02;;;;;;;114.88;41.97;;;;;;;;;;5034162;28;20442;-74
2022/12/05 08:07:28;;;;;;;121.93;42.80;;;;;;;;;;5034577;28;20482;-74
2022/12/05 08:09:54;;;;;;;116.00;41.53;;;;;;;;;;5036506;28;20108;-76
2022/12/05 08:12:20;;;;;;;121.07;42.38;;;;;;;;;;5035867;28;20033;-76
2022/12/05 08:14:46;;;;;;;124.50;43.60;;;;;;;;;;5035683;28;20052;-79
2022/12/05 08:17:12;;;;;;;118.82;41.90;;;;;;;;;;5033828;28;20039;-76
2022/12/05 08:19:38;;;;;;;127.05;43.72;;;;;;;;;;5035990;28;20025;-74
2022/12/05 08:22:04;;;;;;;120.05;43.00;;;;;;;;;;5035183;28;20540;-75
2022/12/05 08:24:30;;;;;;;118.05;43.15;;;;;;;;;;5035409;28;20057;-77
2022/12/05 08:26:56;;;;;;;123.40;41.15;;;;;;;;;;5034444;28;20099;-74
2022/12/05 08:29:22;;;;;;;111.32;43.33;;;;;;;;;;5033838;28;20025;-76
2022/12/05 08:31:49;;;;;;;112.15;40.97;;;;;;;;;;5033921;28;20159;-74
2022/12/05 08:34:16;;;;;;;117.82;40.85;;;;;;;;;;5034088;28;20155;-76
2022/12/05 08:36:43;;;;;;;113.18;40.10;;;;;;;;;;5033533;28;20033;-76
2022/12/05 08:39:13;;;;;;;108.97;39.53;;;;;;;;;;5033138;28;20025;-75
2022/12/05 08:41:39;;;;;;;108.95;40.55;;;;;;;;;;5033575;28;20025;-76
2022/12/05 08:44:06;;;;;;;115.07;40.85;;;;;;;;;;5033669;28;20079;-74
2022/12/05 08:46:33;;;;;;;108.38;39.53;;;;;;;;;;5032524;28;20017;-75
2022/12/05 08:48:59;;;;;;;108.03;40.05;;;;;;;;;;5032582;28;20032;-75
2022/12/05 08:51:25;;;;;;;104.03;37.70;;;;;;;;;;5032144;28;20019;-74
2022/12/05 08:53:51;;;;;;;116.05;42.20;;;;;;;;;;5033682;28;20022;-75
2022/12/05 08:56:17;;;;;;;112.88;40.65;;;;;;;;;;5032711;28;20101;-76
2022/12/05 08:58:43;;;;;;;109.63;40.35;;;;;;;;;;5033190;28;20072;-74
2022/12/05 09:01:16;;;;;;;147.60;56.88;;;;;;;;;;5033384;28;20021;-74
2022/12/05 09:03:43;;;;;;;106.53;38.63;;;;;;;;;;5033251;28;20029;-76
2022/12/05 09:06:10;;;;;;;111.38;39.60;;;;;;;;;;5033053;28;20033;-76
2022/12/05 09:08:37;;;;;;;102.15;36.45;;;;;;;;;;5036092;28;20473;-75
2022/12/05 09:11:07;;;;;;;100.07;36.65;;;;;;;;;;5038760;28;20120;-76
2022/12/05 09:13:33;;;;;;;103.60;38.75;;;;;;;;;;5042150;28;20177;-76
2022/12/05 09:15:59;;;;;;;108.97;39.60;;;;;;;;;;5045332;28;20041;-76
2022/12/05 09:18:25;;;;;;;116.35;39.22;;;;;;;;;;5050801;28;20037;-75
2022/12/05 09:20:51;;;;;;;117.10;40.33;;;;;;;;;;5053619;28;20080;-76
2022/12/05 09:23:17;;;;;;;110.30;39.75;;;;;;;;;;5052355;28;20029;-75
2022/12/05 09:25:43;;;;;;;119.55;41.45;;;;;;;;;;5048070;28;20033;-75
2022/12/05 09:28:09;;;;;;;124.28;43.08;;;;;;;;;;5037096;28;20104;-77
2022/12/05 09:30:35;;;;;;;129.80;44.55;;;;;;;;;;5035070;28;20025;-77
2022/12/05 09:33:00;;;;;;;130.23;44.22;;;;;;;;;;5035684;28;20068;-77
2022/12/05 09:35:26;;;;;;;136.45;44.47;;;;;;;;;;5035504;28;20029;-74
2022/12/05 09:37:55;;;;;;;124.60;41.72;;;;;;;;;;5036705;28;20063;-75
2022/12/05 09:40:21;;;;;;;142.48;46.25;;;;;;;;;;5037301;28;20024;-75
2022/12/05 09:42:56;;;;;;;125.32;42.17;;;;;;;;;;5034537;28;20104;-74
2022/12/05 09:45:23;;;;;;;116.78;43.00;;;;;;;;;;5033093;28;20026;-75
2022/12/05 09:47:49;;;;;;;123.63;40.95;;;;;;;;;;5033941;28;20097;-76
2022/12/05 09:50:18;;;;;;;126.15;41.90;;;;;;;;;;5035563;28;20044;-76
2022/12/05 09:53:02;;;;;;;113.20;39.03;;;;;;;;;;5038691;28;20025;-75
2022/12/05 09:55:41;;;;;;;112.55;38.53;;;;;;;;;;5038140;28;20029;-76
2022/12/05 09:58:22;;;;;;;117.18;40.08;;;;;;;;;;5039129;28;20116;-76
2022/12/05 10:00:50;;;;;;;118.25;39.90;;;;;;;;;;5044838;28;20040;-75
2022/12/05 10:03:29;;;;;;;114.80;40.42;;;;;;;;;;5045862;28;20056;-75
2022/12/05 10:05:55;;;;;;;119.40;39.38;;;;;;;;;;5043074;28;20032;-74
2022/12/05 10:08:21;;;;;;;115.03;40.75;;;;;;;;;;5046799;28;20025;-75
2022/12/05 10:11:00;;;;;;;116.85;38.30;;;;;;;;;;5046664;28;20030;-74
2022/12/05 10:13:29;;;;;;;111.43;38.70;;;;;;;;;;5044731;28;20043;-74
2022/12/05 10:16:06;;;;;;;115.25;39.15;;;;;;;;;;5044186;28;20045;-74
2022/12/05 10:18:46;;;;;;;105.60;37.97;;;;;;;;;;5045227;28;20025;-75
2022/12/05 10:21:19;;;;;;;118.97;37.67;;;;;;;;;;5043430;28;20037;-75
2022/12/05 10:23:50;;;;;;;104.40;35.85;;;;;;;;;;5046158;28;20483;-75
2022/12/05 10:26:16;;;;;;;106.38;35.55;;;;;;;;;;5038122;28;20497;-74
2022/12/05 10:28:51;;;;;;;97.10;34.90;;;;;;;;;;5037168;28;20029;-75
2022/12/05 10:31:19;;;;;;;94.85;33.70;;;;;;;;;;5035848;28;20030;-76
2022/12/05 10:33:48;;;;;;;102.45;33.60;;;;;;;;;;5035066;28;20068;-77
2022/12/05 10:36:15;;;;;;;100.18;33.53;;;;;;;;;;5035418;28;20095;-76
2022/12/05 10:38:45;;;;;;;107.68;34.30;;;;;;;;;;5036130;28;20025;-76
2022/12/05 10:41:12;;;;;;;96.03;33.38;;;;;;;;;;5033779;28;20113;-74
2022/12/05 10:43:42;;;;;;;117.15;39.63;;;;;;;;;;5036387;28;20025;-77
2022/12/05 10:46:09;;;;;;;98.20;33.65;;;;;;;;;;5035803;28;20033;-77
2022/12/05 10:48:36;;;;;;;92.50;31.88;;;;;;;;;;5036245;28;20032;-76
2022/12/05 10:51:03;;;;;;;89.00;30.63;;;;;;;;;;5034232;28;20422;-74
2022/12/05 10:53:35;;;;;;;93.13;31.52;;;;;;;;;;5037032;28;20025;-76
2022/12/05 10:56:01;;;;;;;96.00;31.98;;;;;;;;;;5047259;28;20025;-75
2022/12/05 10:58:28;;;;;;;92.07;32.30;;;;;;;;;;5050450;28;20033;-75
2022/12/05 11:00:58;;;;;;;88.40;33.40;;;;;;;;;;5046785;28;20030;-75
2022/12/05 11:03:26;;;;;;;89.32;30.95;;;;;;;;;;5037178;28;20482;-74
2022/12/05 11:05:54;;;;;;;104.88;35.33;;;;;;;;;;5036907;28;20501;-74
2022/12/05 11:08:27;;;;;;;92.60;32.05;;;;;;;;;;5043875;28;20040;-76
2022/12/05 11:11:05;;;;;;;86.03;31.45;;;;;;;;;;5040110;28;20107;-76
2022/12/05 11:13:32;;;;;;;92.60;31.40;;;;;;;;;;5041233;28;20025;-78
2022/12/05 11:15:58;;;;;;;101.47;33.08;;;;;;;;;;5046568;23;20057;-74
2022/12/05 11:18:24;;;;;;;93.60;33.22;;;;;;;;;;5015086;28;20235;-75
2022/12/05 11:20:50;;;;;;;96.90;32.42;;;;;;;;;;5015596;28;20101;-75
2022/12/05 11:23:26;;;;;;;88.95;31.98;;;;;;;;;;5015118;28;20084;-75
2022/12/05 11:25:53;;;;;;;96.28;32.53;;;;;;;;;;5014197;28;20101;-74
2022/12/05 11:28:19;;;;;;;90.13;32.42;;;;;;;;;;5015741;28;20018;-76
2022/12/05 11:30:59;;;;;;;100.97;33.28;;;;;;;;;;5020808;28;20394;-75
2022/12/05 11:33:26;;;;;;;98.72;31.92;;;;;;;;;;5013657;28;20014;-76
2022/12/05 11:35:54;;;;;;;103.00;34.05;;;;;;;;;;5015666;28;20050;-75
2022/12/05 11:38:21;;;;;;;96.68;32.70;;;;;;;;;;5017518;28;20030;-74
2022/12/05 11:40:53;;;;;;;91.40;31.67;;;;;;;;;;5018904;28;20029;-73
2022/12/05 11:43:19;;;;;;;96.45;32.97;;;;;;;;;;5016571;28;20037;-72
2022/12/05 11:45:50;;;;;;;91.95;33.15;;;;;;;;;;5016791;28;20034;-74
2022/12/05 11:48:31;;;;;;;93.93;32.90;;;;;;;;;;5018010;28;20028;-75
2022/12/05 11:51:00;;;;;;;92.05;33.65;;;;;;;;;;5017090;28;20077;-74
2022/12/05 11:53:49;;;;;;;90.32;33.03;;;;;;;;;;5016829;28;20105;-75
2022/12/05 11:56:18;;;;;;;82.45;30.35;;;;;;;;;;5014514;28;20065;-72
2022/12/05 11:58:50;;;;;;;83.65;30.73;;;;;;;;;;5015904;28;20398;-74
2022/12/05 12:01:29;;;;;;;85.30;31.70;;;;;;;;;;5015896;28;20394;-75
2022/12/05 12:04:18;;;;;;;84.38;31.08;;;;;;;;;;5015203;28;20034;-73
2022/12/05 12:06:44;;;;;;;85.18;30.98;;;;;;;;;;5012138;28;20061;-74
2022/12/05 12:09:18;;;;;;;95.30;39.33;;;;;;;;;;5016486;28;20026;-74
2022/12/05 12:11:48;;;;;;;88.53;32.63;;;;;;;;;;5015210;28;20025;-74
2022/12/05 12:14:26;;;;;;;78.25;30.15;;;;;;;;;;5016656;28;20234;-73
2022/12/05 12:16:52;;;;;;;83.50;31.63;;;;;;;;;;5017128;28;20037;-75
2022/12/05 12:19:37;;;;;;;72.03;29.13;;;;;;;;;;5015887;28;20088;-74
2022/12/05 12:22:12;;;;;;;56.55;22.02;;;;;;;;;;5014766;28;20048;-72
2022/12/05 12:24:41;;;;;;;74.20;30.25;;;;;;;;;;5015348;28;20034;-72
2022/12/05 12:27:16;;;;;;;78.07;29.40;;;;;;;;;;5015328;28;20419;-74
2022/12/05 12:29:54;;;;;;;74.50;29.90;;;;;;;;;;5014571;28;20096;-71
2022/12/05 12:32:38;;;;;;;72.95;29.33;;;;;;;;;;5015735;28;20022;-73
2022/12/05 12:35:04;;;;;;;67.57;28.85;;;;;;;;;;5017757;28;20442;-73
2022/12/05 12:37:42;;;;;;;69.43;29.13;;;;;;;;;;5027162;28;20422;-72
2022/12/05 12:40:21;;;;;;;66.15;28.70;;;;;;;;;;5030502;28;20045;-70
2022/12/05 12:43:10;;;;;;;67.88;28.80;;;;;;;;;;5032160;28;20021;-72
2022/12/05 12:45:39;;;;;;;74.55;28.50;;;;;;;;;;5025279;28;20490;-71
2022/12/05 12:48:05;;;;;;;67.47;28.30;;;;;;;;;;5026839;28;20049;-74
2022/12/05 12:50:32;;;;;;;71.85;28.67;;;;;;;;;;5013957;28;20080;-73
2022/12/05 12:53:05;;;;;;;70.18;29.42;;;;;;;;;;5016640;28;20048;-75
2022/12/05 12:55:34;;;;;;;74.25;29.55;;;;;;;;;;5020694;28;20030;-74
2022/12/05 12:58:16;;;;;;;67.30;28.40;;;;;;;;;;5016540;28;20030;-72
2022/12/05 13:00:45;;;;;;;77.47;28.45;;;;;;;;;;5014849;28;20196;-74
2022/12/05 13:03:16;;;;;;;84.25;31.77;;;;;;;;;;5015756;28;20029;-74
2022/12/05 13:06:00;;;;;;;74.38;28.77;;;;;;;;;;5015000;28;20026;-72
2022/12/05 13:08:29;;;;;;;77.72;30.15;;;;;;;;;;5015260;28;20105;-74
2022/12/05 13:10:56;;;;;;;75.75;29.23;;;;;;;;;;5013686;28;20030;-74
2022/12/05 13:13:25;;;;;;;77.97;29.63;;;;;;;;;;5012840;28;20033;-76
2022/12/05 13:15:53;;;;;;;72.20;28.27;;;;;;;;;;5013377;28;20037;-77
2022/12/05 13:18:21;;;;;;;66.35;28.48;;;;;;;;;;5014458;28;20029;-74
2022/12/05 13:20:52;;;;;;;69.50;28.73;;;;;;;;;;5013934;28;20083;-75
2022/12/05 13:23:20;;;;;;;65.68;27.65;;;;;;;;;;5014293;28;20030;-74
2022/12/05 13:25:47;;;;;;;68.32;28.60;;;;;;;;;;5013593;28;20030;-74
2022/12/05 13:28:41;;;;;;;58.85;26.48;;;;;;;;;;5014009;28;20085;-73
2022/12/05 13:31:07;;;;;;;77.97;28.40;;;;;;;;;;5012418;28;20076;-75
2022/12/05 13:33:43;;;;;;;69.10;27.98;;;;;;;;;;5014633;28;20029;-74
2022/12/05 13:44:37;;;;;;;66.53;27.02;;;;;;;;;;5013984;28;20012;-73
2022/12/05 13:47:06;;;;;;;65.03;28.52;;;;;;;;;;5013467;28;20082;-75
2022/12/05 13:49:41;;;;;;;71.30;28.42;;;;;;;;;;5013582;28;20018;-73
2022/12/05 13:52:09;;;;;;;64.47;27.92;;;;;;;;;;5013300;28;20014;-73
2022/12/05 13:54:43;;;;;;;65.60;28.25;;;;;;;;;;5013059;28;20037;-75
2022/12/05 13:57:27;;;;;;;69.55;28.80;;;;;;;;;;5012481;28;20057;-74
2022/12/05 14:00:03;;;;;;;97.68;42.47;;;;;;;;;;5013740;28;20029;-74
2022/12/05 14:02:45;;;;;;;59.80;27.52;;;;;;;;;;5013170;28;20160;-73
2022/12/05 14:05:13;;;;;;;65.65;26.48;;;;;;;;;;5016321;28;20025;-74
2022/12/05 14:07:53;;;;;;;63.83;27.33;;;;;;;;;;5012585;28;20026;-73
2022/12/05 14:10:23;;;;;;;55.08;26.23;;;;;;;;;;5013661;28;20097;-72
2022/12/05 14:12:50;;;;;;;54.65;24.35;;;;;;;;;;5012106;28;20025;-77
2022/12/05 14:15:28;;;;;;;56.67;26.00;;;;;;;;;;5009979;28;20057;-74
2022/12/05 14:18:01;;;;;;;58.45;25.10;;;;;;;;;;5013152;28;20073;-74
2022/12/05 14:20:46;;;;;;;64.82;27.67;;;;;;;;;;5014065;28;20088;-75
2022/12/05 14:23:22;;;;;;;54.67;26.13;;;;;;;;;;5014003;28;20446;-73
2022/12/05 14:26:06;;;;;;;58.13;27.30;;;;;;;;;;5012880;28;20501;-74
2022/12/05 14:28:46;;;;;;;57.97;26.30;;;;;;;;;;5013800;28;20483;-72
2022/12/05 14:31:15;;;;;;;55.85;25.30;;;;;;;;;;5013487;28;20034;-74
2022/12/05 14:33:41;;;;;;;53.90;24.30;;;;;;;;;;5013779;28;20026;-74
2022/12/05 14:36:08;;;;;;;56.80;24.30;;;;;;;;;;5014077;28;20037;-76
2022/12/05 14:38:36;;;;;;;81.15;34.58;;;;;;;;;;5016938;28;20101;-73
2022/12/05 14:41:16;;;;;;;92.38;42.97;;;;;;;;;;5017247;28;20018;-74